Time;durP1;ratioP1;P1;durP2;ratioP2;P2;SDS_P1;SDS_P2;PMS_P1;PMS_P2;Temp;Humidity;BMP_temperature;BMP_pressure;BME280_temperature;BME280_humidity;BME280_pressure;Samples;Min_cycle;Max_cycle;Signal;HPM_P1;HPM_P2
2021/06/25 00:02:37;;;;;;;9.30;2.00;;;;;;;17.91;73.82;101212.56;1672230;85;21577;-85
2021/06/25 00:05:15;;;;;;;4.40;1.50;;;;;;;17.90;73.87;101212.98;1671922;85;21085;-84
2021/06/25 00:07:42;;;;;;;2.60;1.60;;;;;;;17.90;73.75;101219.64;1671184;85;21098;-84
2021/06/25 00:10:13;;;;;;;4.22;1.72;;;;;;;17.84;73.73;101217.85;1672195;85;21090;-85
2021/06/25 00:12:40;;;;;;;2.83;1.40;;;;;;;17.81;73.76;101220.91;1672603;85;21235;-85
2021/06/25 00:16:02;;;;;;;3.58;1.80;;;;;;;17.80;73.87;101229.80;1672222;85;22543;-83
2021/06/25 00:18:40;;;;;;;2.35;1.65;;;;;;;17.79;73.77;101234.67;1672120;85;21091;-84
2021/06/25 00:21:17;;;;;;;3.00;1.70;;;;;;;17.78;73.87;101245.77;1672424;85;21129;-85
2021/06/25 00:23:45;;;;;;;2.10;1.62;;;;;;;17.75;73.94;101239.55;1672357;85;21541;-84
2021/06/25 00:26:12;;;;;;;2.15;1.60;;;;;;;17.78;73.98;101243.56;1672451;85;21019;-85
2021/06/25 00:28:39;;;;;;;2.62;2.33;;;;;;;17.76;73.92;101239.55;1672590;85;21806;-87
2021/06/25 00:31:06;;;;;;;3.30;2.17;;;;;;;17.76;73.83;101240.01;1672735;85;21074;-86
2021/06/25 00:33:32;;;;;;;2.92;1.85;;;;;;;17.73;73.85;101239.98;1672587;85;21092;-86
2021/06/25 00:35:59;;;;;;;4.62;1.67;;;;;;;17.69;73.83;101247.07;1668698;85;21027;-87
2021/06/25 00:38:26;;;;;;;2.75;1.95;;;;;;;17.65;73.87;101246.17;1669829;85;21027;-89
2021/06/25 00:40:55;;;;;;;3.35;2.20;;;;;;;17.60;73.93;101245.25;1670698;85;21750;-85
2021/06/25 00:43:23;;;;;;;2.87;1.82;;;;;;;17.60;74.04;101255.02;1670429;85;21039;-83
2021/06/25 00:45:55;;;;;;;2.55;1.80;;;;;;;17.60;74.07;101251.02;1670227;85;21024;-87
2021/06/25 00:48:23;;;;;;;3.67;2.17;;;;;;;17.57;74.05;101247.92;1672159;83;21055;-87
2021/06/25 00:50:49;;;;;;;2.37;2.17;;;;;;;17.58;74.27;101249.68;1672586;85;21102;-87
2021/06/25 00:53:16;;;;;;;2.58;1.98;;;;;;;17.61;74.33;101249.70;1672442;85;21843;-87
2021/06/25 00:55:50;;;;;;;3.62;2.15;;;;;;;17.58;74.35;101249.68;1672499;85;21082;-87
2021/06/25 00:58:23;;;;;;;5.55;2.17;;;;;;;17.58;74.55;101257.67;1672814;85;21016;-87
2021/06/25 01:00:50;;;;;;;3.27;1.77;;;;;;;17.58;74.52;101252.80;1672904;85;21147;-87
2021/06/25 01:03:17;;;;;;;2.15;1.72;;;;;;;17.54;74.61;101241.24;1672644;85;21078;-88
2021/06/25 01:05:44;;;;;;;3.77;1.80;;;;;;;17.49;74.63;101242.57;1672652;85;21876;-89
2021/06/25 01:08:11;;;;;;;3.08;1.90;;;;;;;17.45;74.78;101239.42;1672808;85;21082;-87
2021/06/25 01:10:40;;;;;;;2.22;2.00;;;;;;;17.40;74.90;101234.95;1672738;85;21070;-88
2021/06/25 01:13:15;;;;;;;2.40;1.90;;;;;;;17.33;74.91;101226.08;1672851;85;21085;-88
2021/06/25 01:15:46;;;;;;;2.00;1.85;;;;;;;17.30;75.08;101235.36;1672543;85;21099;-88
2021/06/25 01:18:13;;;;;;;2.02;1.82;;;;;;;17.25;75.14;101235.80;1672403;85;21805;-88
2021/06/25 01:20:40;;;;;;;4.03;2.10;;;;;;;17.19;75.31;101232.67;1672703;85;21412;-87
2021/06/25 01:23:07;;;;;;;1.80;1.70;;;;;;;17.21;75.55;101234.89;1674474;85;21092;-87
2021/06/25 01:25:35;;;;;;;2.15;1.87;;;;;;;17.20;75.55;101230.44;1670469;85;21060;-88
2021/06/25 01:28:06;;;;;;;3.35;1.90;;;;;;;17.20;75.61;101230.89;1670715;85;21090;-87
2021/06/25 01:30:36;;;;;;;2.40;1.80;;;;;;;17.21;75.60;101232.23;1672273;85;22552;-86
2021/06/25 01:33:06;;;;;;;2.70;1.90;;;;;;;17.16;75.43;101229.09;1671924;85;21106;-86
2021/06/25 01:35:34;;;;;;;3.50;2.00;;;;;;;17.17;75.69;101229.08;1672262;85;21098;-86
2021/06/25 01:38:01;;;;;;;4.05;2.10;;;;;;;17.16;75.64;101222.00;1672084;85;21055;-86
2021/06/25 01:40:27;;;;;;;4.72;2.02;;;;;;;17.15;75.60;101229.52;1672049;85;21027;-86
2021/06/25 01:42:54;;;;;;;2.42;2.00;;;;;;;17.13;75.68;101219.31;1671891;85;21774;-86
2021/06/25 01:45:33;;;;;;;3.27;2.00;;;;;;;17.13;75.76;101215.77;1672129;85;21094;-87
2021/06/25 01:48:00;;;;;;;4.03;2.20;;;;;;;17.12;75.64;101217.55;1672007;85;21169;-85
2021/06/25 01:50:41;;;;;;;2.47;1.70;;;;;;;17.11;75.86;101207.77;1671790;83;21588;-85
2021/06/25 01:53:17;;;;;;;3.22;2.20;;;;;;;17.11;75.79;101205.11;1672096;85;21095;-84
2021/06/25 01:55:45;;;;;;;3.83;2.05;;;;;;;17.08;75.78;101196.69;1672236;85;22576;-84
2021/06/25 01:58:17;;;;;;;2.10;1.87;;;;;;;17.07;75.95;101194.90;1672218;85;21114;-84
2021/06/25 02:00:52;;;;;;;3.47;2.20;;;;;;;17.10;75.95;101190.05;1672123;85;21086;-84
2021/06/25 02:03:23;;;;;;;2.42;1.80;;;;;;;17.11;75.89;101201.12;1671667;85;21188;-85
2021/06/25 02:05:50;;;;;;;3.60;1.87;;;;;;;17.13;75.96;101201.14;1672064;85;21078;-85
2021/06/25 02:08:17;;;;;;;2.70;2.00;;;;;;;17.14;75.96;101189.63;1672332;85;21903;-85
2021/06/25 02:10:44;;;;;;;2.37;1.77;;;;;;;17.14;75.91;101189.19;1672151;85;21062;-86
2021/06/25 02:13:10;;;;;;;3.33;2.10;;;;;;;17.16;75.94;101192.73;1672406;85;21220;-86
2021/06/25 02:15:37;;;;;;;2.33;1.92;;;;;;;17.17;75.95;101199.81;1672475;85;21237;-86
2021/06/25 02:18:04;;;;;;;2.15;1.62;;;;;;;17.19;76.05;101191.84;1672481;85;21125;-86
2021/06/25 02:20:39;;;;;;;1.85;1.30;;;;;;;17.22;76.07;101191.42;1672518;85;21793;-86
2021/06/25 02:23:07;;;;;;;1.50;1.40;;;;;;;17.23;76.01;101194.55;1672361;85;21133;-85
2021/06/25 02:25:34;;;;;;;3.05;1.90;;;;;;;17.25;75.86;101201.22;1672563;85;21644;-87
2021/06/25 02:28:10;;;;;;;3.40;2.00;;;;;;;17.25;75.93;101199.88;1672602;85;21114;-87
2021/06/25 02:30:37;;;;;;;2.83;1.70;;;;;;;17.27;75.95;101199.00;1672734;85;21110;-86
2021/06/25 02:33:04;;;;;;;3.22;1.90;;;;;;;17.25;75.76;101189.24;1672748;85;21756;-87
2021/06/25 02:35:39;;;;;;;2.08;1.45;;;;;;;17.24;75.83;101194.09;1665019;85;21556;-86
2021/06/25 02:38:06;;;;;;;3.33;1.90;;;;;;;17.22;75.73;101196.75;1672041;85;21094;-86
2021/06/25 02:40:32;;;;;;;2.60;1.65;;;;;;;17.21;75.73;101191.00;1672468;85;21645;-85
2021/06/25 02:42:59;;;;;;;2.30;2.00;;;;;;;17.23;75.86;101186.56;1672797;85;21675;-87
2021/06/25 02:45:26;;;;;;;2.00;1.80;;;;;;;17.26;75.91;101190.55;1672756;85;21221;-86
2021/06/25 02:47:52;;;;;;;2.35;1.67;;;;;;;17.30;75.85;101186.14;1672759;85;21019;-85
2021/06/25 02:50:34;;;;;;;3.35;1.65;;;;;;;17.32;75.84;101183.48;1683376;84;21516;-86
2021/06/25 02:53:01;;;;;;;6.03;1.70;;;;;;;17.36;75.83;101187.94;1687087;85;21292;-86
2021/06/25 02:55:27;;;;;;;3.62;1.67;;;;;;;17.37;75.84;101182.63;1686944;84;21061;-87
2021/06/25 02:57:54;;;;;;;1.77;1.67;;;;;;;17.39;75.74;101191.50;1687984;84;21739;-86
2021/06/25 03:00:21;;;;;;;2.95;1.52;;;;;;;17.39;75.73;101200.81;1687475;85;21082;-86
2021/06/25 03:03:03;;;;;;;3.02;1.70;;;;;;;17.43;75.94;101205.71;1687284;85;21077;-85
2021/06/25 03:05:31;;;;;;;3.67;1.97;;;;;;;17.46;75.98;101205.28;1686144;85;21054;-85
2021/06/25 03:07:58;;;;;;;4.50;1.87;;;;;;;17.47;75.88;101188.86;1687773;85;21164;-85
2021/06/25 03:10:29;;;;;;;2.67;2.00;;;;;;;17.51;75.99;101197.75;1687535;85;21777;-85
2021/06/25 03:12:56;;;;;;;2.25;1.98;;;;;;;17.55;75.96;101193.80;1687684;85;21054;-87
2021/06/25 03:15:23;;;;;;;3.55;2.02;;;;;;;17.56;75.74;101190.23;1684521;84;21535;-88
2021/06/25 03:17:57;;;;;;;3.35;2.00;;;;;;;17.56;75.72;101194.67;1687926;84;21638;-89
2021/06/25 03:20:24;;;;;;;3.02;2.27;;;;;;;17.55;75.57;101189.80;1686329;84;21176;-86
2021/06/25 03:22:51;;;;;;;2.95;2.60;;;;;;;17.53;75.62;101184.92;1687836;85;21734;-89
2021/06/25 03:25:18;;;;;;;3.10;2.42;;;;;;;17.56;75.64;101187.56;1687230;85;20987;-86
2021/06/25 03:27:45;;;;;;;4.33;2.10;;;;;;;17.57;75.67;101176.05;1687790;84;21604;-87
2021/06/25 03:30:23;;;;;;;2.98;2.20;;;;;;;17.59;75.58;101176.94;1685280;84;21584;-84
2021/06/25 03:32:54;;;;;;;4.58;2.58;;;;;;;17.59;75.65;101172.95;1686939;85;21105;-83
2021/06/25 03:35:21;;;;;;;4.87;2.60;;;;;;;17.59;75.58;101178.27;1686843;85;21176;-83
2021/06/25 03:37:48;;;;;;;2.40;2.20;;;;;;;17.64;75.61;101173.86;1665199;85;38868;-84
2021/06/25 03:40:25;;;;;;;4.03;2.60;;;;;;;17.68;75.50;101176.05;1687235;85;21622;-85
2021/06/25 03:43:00;;;;;;;2.72;2.35;;;;;;;17.67;75.53;101162.31;1686700;85;21098;-84
2021/06/25 03:45:40;;;;;;;5.78;2.90;;;;;;;17.77;75.53;101174.75;1686392;84;21057;-84
2021/06/25 03:48:16;;;;;;;3.17;2.42;;;;;;;17.82;75.42;101184.09;1687655;84;21776;-85
2021/06/25 03:50:52;;;;;;;5.00;3.17;;;;;;;17.90;75.46;101179.70;1687080;84;21142;-85
2021/06/25 03:53:22;;;;;;;4.15;3.25;;;;;;;17.98;75.48;101175.29;1686612;85;21097;-81
2021/06/25 03:58:40;;;;;;;3.60;2.67;;;;;;;18.17;75.32;101173.53;1687230;84;21049;-81
2021/06/25 04:01:09;;;;;;;4.67;2.90;;;;;;;18.25;75.08;101177.06;1667164;85;21326;-80
2021/06/25 04:03:36;;;;;;;5.87;3.00;;;;;;;18.32;75.06;101173.97;1681693;84;21173;-82
2021/06/25 04:06:04;;;;;;;3.67;2.85;;;;;;;18.40;74.91;101182.84;1661963;85;21083;-81
2021/06/25 04:08:32;;;;;;;6.40;3.47;;;;;;;18.49;74.80;101179.72;1647773;87;21058;-82
2021/06/25 04:10:59;;;;;;;5.87;2.92;;;;;;;18.53;74.69;101166.41;1655914;86;21066;-82
2021/06/25 04:13:26;;;;;;;3.98;3.47;;;;;;;18.62;74.71;101170.39;1657037;86;21733;-82
2021/06/25 04:15:54;;;;;;;3.83;3.40;;;;;;;18.67;74.43;101169.49;1656763;86;21078;-80
2021/06/25 04:18:21;;;;;;;6.45;3.72;;;;;;;18.68;74.39;101169.49;1657246;86;21094;-79
2021/06/25 04:20:48;;;;;;;6.12;3.30;;;;;;;18.70;74.27;101168.16;1657175;85;21533;-79
2021/06/25 04:23:14;;;;;;;5.62;3.25;;;;;;;18.72;74.11;101169.05;1657763;86;21078;-82
2021/06/25 04:25:41;;;;;;;4.15;3.37;;;;;;;18.72;74.09;101158.38;1657410;86;21163;-82
2021/06/25 04:28:08;;;;;;;6.08;3.95;;;;;;;18.74;74.09;101148.59;1657366;86;21552;-81
2021/06/25 04:30:36;;;;;;;5.10;3.40;;;;;;;18.94;74.70;101145.88;1657338;86;21070;-83
2021/06/25 04:33:03;;;;;;;4.10;3.30;;;;;;;19.71;75.20;101146.42;1657312;85;21074;-84
2021/06/25 04:35:30;;;;;;;4.72;2.90;;;;;;;21.01;75.92;101135.49;1657425;85;21193;-82
2021/06/25 04:38:01;;;;;;;5.12;3.42;;;;;;;22.27;73.55;101131.02;1656120;86;21772;-83
2021/06/25 04:40:25;;;;;;;5.33;2.85;;;;;;;23.17;72.67;101130.23;1638332;87;21636;-83
2021/06/25 04:42:52;;;;;;;3.67;2.85;;;;;;;25.59;72.11;101117.25;1606910;89;21623;-84
2021/06/25 04:45:19;;;;;;;5.53;3.12;;;;;;;26.80;66.87;101120.84;1620536;88;21556;-83
2021/06/25 04:47:45;;;;;;;4.28;2.83;;;;;;;26.87;64.93;101117.85;1616266;88;21117;-84
2021/06/25 04:50:12;;;;;;;4.70;3.10;;;;;;;27.59;64.12;101125.50;1614351;87;21864;-82
2021/06/25 04:52:40;;;;;;;4.17;3.02;;;;;;;28.39;62.53;101125.79;1612184;89;21091;-83
2021/06/25 04:55:08;;;;;;;6.40;3.02;;;;;;;29.88;62.19;101123.95;1611942;88;21154;-83
2021/06/25 04:57:38;;;;;;;4.33;2.90;;;;;;;31.36;60.13;101127.94;1646897;86;21106;-88
2021/06/25 05:00:07;;;;;;;5.33;3.67;;;;;;;32.28;57.17;101118.55;1681281;84;21035;-86
2021/06/25 05:02:34;;;;;;;4.85;3.30;;;;;;;32.82;54.98;101124.82;1726113;82;21769;-95
2021/06/25 05:05:09;;;;;;;3.10;2.65;;;;;;;33.21;53.54;101127.39;1725792;82;21153;-91
2021/06/25 05:07:36;;;;;;;4.75;2.92;;;;;;;33.39;51.69;101124.44;1725062;83;21018;-92
2021/06/25 05:10:03;;;;;;;4.50;2.87;;;;;;;33.46;50.88;101121.70;1725503;83;21061;-91
2021/06/25 05:12:30;;;;;;;4.45;3.10;;;;;;;33.67;50.17;101131.25;1718821;82;20998;-93
2021/06/25 05:14:58;;;;;;;4.05;3.22;;;;;;;33.95;48.83;101137.58;1716014;83;21111;-92
2021/06/25 05:17:27;;;;;;;4.53;4.03;;;;;;;34.71;48.49;101144.74;1689348;83;21038;-93
2021/06/25 05:20:05;;;;;;;3.55;2.72;;;;;;;35.61;46.82;101138.22;1686672;83;21145;-94
2021/06/25 05:22:25;;;;;;;4.72;3.15;;;;;;;36.28;45.69;101138.73;1674675;83;21572;-93
2021/06/25 05:24:51;;;;;;;5.37;2.95;;;;;;;36.92;44.72;101136.43;1677068;85;21112;-93
2021/06/25 05:27:18;;;;;;;2.98;2.33;;;;;;;37.78;43.86;101147.75;1679821;84;21745;-93
2021/06/25 05:29:47;;;;;;;5.45;2.85;;;;;;;38.48;42.54;101154.63;1680073;84;21624;-93
2021/06/25 05:32:14;;;;;;;4.67;2.83;;;;;;;39.17;41.41;101162.83;1673531;84;21866;-95
2021/06/25 05:34:44;;;;;;;3.37;2.52;;;;;;;40.11;40.27;101165.29;1664710;84;21132;-94
2021/06/25 05:37:15;;;;;;;7.25;2.85;;;;;;;40.88;38.88;101162.14;1690462;84;21105;-93
2021/06/25 05:39:42;;;;;;;4.08;2.67;;;;;;;41.21;37.33;101154.88;1652930;86;21874;-94
2021/06/25 05:42:09;;;;;;;6.33;2.45;;;;;;;41.33;36.55;101153.13;1652522;86;21019;-93
2021/06/25 05:44:36;;;;;;;8.80;3.02;;;;;;;41.42;35.61;101147.20;1652741;86;21142;-93
2021/06/25 05:47:04;;;;;;;4.83;2.90;;;;;;;40.17;34.02;101140.41;1652246;86;21529;-94
2021/06/25 05:49:31;;;;;;;6.83;3.02;;;;;;;37.72;33.78;101140.89;1652515;86;21091;-95
2021/06/25 05:51:58;;;;;;;7.92;4.08;;;;;;;35.62;34.78;101143.19;1641034;86;21797;-93
2021/06/25 05:54:24;;;;;;;4.70;3.20;;;;;;;33.87;35.83;101141.32;1652502;86;21066;-95
2021/06/25 05:56:51;;;;;;;4.05;3.17;;;;;;;32.43;36.74;101142.63;1652352;86;21051;-94
2021/06/25 05:59:20;;;;;;;5.08;3.58;;;;;;;31.11;38.06;101150.20;1652651;86;21020;-94
2021/06/25 06:01:46;;;;;;;3.77;3.05;;;;;;;30.09;38.73;101155.46;1652865;85;21110;-93
2021/06/25 06:04:13;;;;;;;4.90;3.60;;;;;;;29.11;39.91;101150.62;1652745;86;21659;-92
2021/06/25 06:06:39;;;;;;;10.75;6.25;;;;;;;28.36;40.94;101152.11;1652765;86;21114;-94
2021/06/25 06:09:06;;;;;;;5.37;4.50;;;;;;;27.82;41.95;101163.81;1669083;85;21535;-93
2021/06/25 06:11:36;;;;;;;9.10;7.12;;;;;;;27.25;42.67;101164.63;1681742;84;21000;-94
2021/06/25 06:14:03;;;;;;;7.78;4.55;;;;;;;26.74;43.32;101165.16;1716001;82;21594;-93
2021/06/25 06:16:30;;;;;;;10.18;4.70;;;;;;;26.21;43.99;101169.23;1713707;83;22522;-94
2021/06/25 06:18:56;;;;;;;5.67;4.03;;;;;;;25.81;44.58;101172.73;1714135;83;21094;-93
2021/06/25 06:21:23;;;;;;;8.28;4.20;;;;;;;25.43;45.22;101166.69;1714204;83;21042;-92
2021/06/25 06:32:25;;;;;;;4.28;3.15;;;;;;;24.56;47.25;101187.05;1713986;83;21552;-91
2021/06/25 06:34:48;;;;;;;9.25;4.37;;;;;;;24.40;47.78;101191.92;1700194;82;21575;-94
2021/06/25 06:37:20;;;;;;;10.48;8.68;;;;;;;24.38;48.15;101199.59;1723598;83;21140;-93
2021/06/25 06:39:46;;;;;;;7.67;4.70;;;;;;;24.42;48.51;101206.70;1718103;83;21598;-93
2021/06/25 06:42:13;;;;;;;8.90;4.30;;;;;;;24.56;48.86;101205.89;1718012;83;22573;-93
2021/06/25 06:44:39;;;;;;;4.87;3.83;;;;;;;24.73;48.84;101209.48;1717853;83;21003;-94
2021/06/25 06:47:06;;;;;;;6.65;4.37;;;;;;;24.97;48.78;101207.94;1717808;83;21015;-93
2021/06/25 06:49:33;;;;;;;5.22;3.30;;;;;;;25.08;48.81;101212.16;1718071;83;21125;-93
2021/06/25 06:52:00;;;;;;;5.45;3.35;;;;;;;25.20;48.67;101210.45;1704508;82;21555;-93
2021/06/25 06:54:27;;;;;;;7.55;4.30;;;;;;;25.24;48.57;101208.11;1703022;83;22660;-93
2021/06/25 06:56:53;;;;;;;8.03;3.58;;;;;;;25.19;48.08;101212.74;1703195;83;21011;-94
2021/06/25 06:59:20;;;;;;;4.55;3.00;;;;;;;24.95;48.26;101217.00;1702690;83;21020;-92
2021/06/25 07:01:47;;;;;;;4.85;2.67;;;;;;;24.82;48.20;101224.52;1703138;83;21035;-92
2021/06/25 07:04:14;;;;;;;6.67;2.92;;;;;;;24.69;48.56;101221.73;1702922;84;21046;-92
2021/06/25 07:06:40;;;;;;;4.85;3.05;;;;;;;24.70;48.71;101223.05;1702801;84;21898;-93
2021/06/25 07:09:07;;;;;;;5.12;3.20;;;;;;;24.68;48.68;101219.95;1702842;84;21510;-93
2021/06/25 07:11:34;;;;;;;4.60;3.20;;;;;;;24.60;48.78;101215.64;1702750;84;21059;-93
2021/06/25 07:14:00;;;;;;;6.00;4.25;;;;;;;24.56;49.01;101221.16;1702857;84;21223;-93
2021/06/25 07:16:27;;;;;;;12.13;3.50;;;;;;;24.58;49.12;101222.88;1702949;83;21090;-92
2021/06/25 07:18:54;;;;;;;10.00;4.37;;;;;;;24.68;49.36;101210.53;1702869;84;21669;-93
2021/06/25 07:21:20;;;;;;;5.78;2.65;;;;;;;24.81;49.00;101213.31;1702624;83;21034;-93
2021/06/25 07:23:47;;;;;;;4.33;2.90;;;;;;;24.75;48.84;101210.80;1702774;84;21050;-93
2021/06/25 07:26:14;;;;;;;7.85;2.85;;;;;;;24.59;49.00;101207.17;1702806;83;21144;-93
2021/06/25 07:28:44;;;;;;;6.58;3.17;;;;;;;24.52;48.82;101203.33;1702778;84;21074;-93
2021/06/25 07:31:09;;;;;;;5.45;2.60;;;;;;;24.23;48.73;101195.04;1702615;83;21787;-93
2021/06/25 07:33:36;;;;;;;5.45;2.85;;;;;;;24.12;49.33;101190.82;1702840;83;21639;-92
2021/06/25 07:36:03;;;;;;;7.17;3.08;;;;;;;24.22;49.63;101186.53;1702925;84;21019;-93
2021/06/25 07:38:30;;;;;;;5.72;3.40;;;;;;;24.22;49.52;101185.19;1703090;84;21043;-92
2021/06/25 07:40:57;;;;;;;5.62;3.50;;;;;;;24.20;49.60;101190.19;1702856;84;21051;-93
2021/06/25 07:43:26;;;;;;;3.58;3.12;;;;;;;24.20;49.46;101195.10;1702826;84;22411;-94
2021/06/25 07:45:53;;;;;;;4.67;3.80;;;;;;;24.25;49.59;101194.97;1702697;83;21086;-92
2021/06/25 07:48:20;;;;;;;5.22;3.50;;;;;;;24.40;49.53;101204.47;1702769;83;21003;-93
2021/06/25 07:50:47;;;;;;;6.15;3.10;;;;;;;24.74;49.60;101203.63;1702827;82;21071;-94
2021/06/25 07:53:13;;;;;;;4.37;3.02;;;;;;;25.21;49.24;101210.88;1702703;84;21031;-93
2021/06/25 07:55:43;;;;;;;3.00;2.70;;;;;;;25.47;48.45;101213.30;1702720;84;21735;-94
2021/06/25 07:58:17;;;;;;;3.77;2.77;;;;;;;25.54;48.13;101223.84;1702808;84;21034;-92
2021/06/25 08:00:43;;;;;;;5.87;3.05;;;;;;;25.58;47.99;101232.73;1702426;83;21015;-93
2021/06/25 08:03:10;;;;;;;9.63;2.77;;;;;;;25.56;47.52;101234.59;1702535;83;21130;-93
2021/06/25 08:05:44;;;;;;;5.67;3.27;;;;;;;25.51;47.61;101239.22;1702531;83;21023;-94
2021/06/25 08:08:10;;;;;;;5.83;2.60;;;;;;;25.44;47.61;101237.19;1702522;83;21722;-93
2021/06/25 08:10:39;;;;;;;4.85;3.95;;;;;;;25.51;47.63;101237.88;1702345;83;21556;-93
2021/06/25 08:13:06;;;;;;;4.78;2.33;;;;;;;25.61;47.70;101225.44;1702543;83;21030;-93
2021/06/25 08:15:33;;;;;;;4.00;2.87;;;;;;;25.78;47.76;101230.31;1702526;83;21015;-93
2021/06/25 08:17:59;;;;;;;4.95;2.87;;;;;;;26.02;47.86;101236.39;1703107;83;21149;-94
2021/06/25 08:20:26;;;;;;;5.25;2.80;;;;;;;26.17;47.49;101245.34;1702827;84;21766;-93
2021/06/25 08:22:54;;;;;;;6.00;2.40;;;;;;;26.29;47.29;101239.53;1702267;84;21064;-93
2021/06/25 08:25:21;;;;;;;4.50;2.42;;;;;;;26.53;47.48;101240.53;1702837;83;21101;-94
2021/06/25 08:27:48;;;;;;;3.00;2.30;;;;;;;26.80;47.29;101238.32;1702804;83;21019;-93
2021/06/25 08:30:16;;;;;;;5.45;2.75;;;;;;;27.10;46.88;101230.94;1702559;83;21058;-93
2021/06/25 08:32:44;;;;;;;3.92;2.33;;;;;;;27.28;46.55;101234.84;1702771;84;22618;-94
2021/06/25 08:35:11;;;;;;;3.52;2.10;;;;;;;27.45;46.17;101235.08;1702703;83;21378;-94
2021/06/25 08:37:38;;;;;;;6.37;2.58;;;;;;;27.65;45.72;101238.38;1702731;84;21097;-87
2021/06/25 08:40:07;;;;;;;2.92;2.27;;;;;;;27.84;45.30;101239.89;1702750;84;21054;-94
2021/06/25 08:42:36;;;;;;;5.03;2.35;;;;;;;27.90;44.76;101242.86;1702854;83;21052;-94
2021/06/25 08:45:10;;;;;;;5.97;2.22;;;;;;;27.93;44.61;101241.41;1702362;84;21770;-90
2021/06/25 08:47:48;;;;;;;5.37;2.05;;;;;;;28.08;44.71;101239.88;1699521;84;21253;-93
2021/06/25 08:50:16;;;;;;;6.05;2.27;;;;;;;28.20;44.12;101240.74;1702729;83;21413;-94
2021/06/25 08:52:45;;;;;;;4.90;2.30;;;;;;;28.09;43.83;101231.70;1718809;82;21039;-93
2021/06/25 08:55:16;;;;;;;4.05;2.72;;;;;;;28.15;44.10;101229.70;1721142;83;21073;-93
2021/06/25 08:57:43;;;;;;;3.67;2.40;;;;;;;28.26;43.63;101231.01;1720869;83;22857;-86
2021/06/25 09:00:12;;;;;;;5.37;2.15;;;;;;;28.35;43.46;101224.83;1720784;83;21038;-87
2021/06/25 09:02:39;;;;;;;4.60;2.30;;;;;;;28.42;43.15;101225.85;1698493;83;21046;-86
2021/06/25 09:05:26;;;;;;;5.62;2.00;;;;;;;28.57;43.13;101228.87;1720776;83;21034;-87
2021/06/25 09:07:54;;;;;;;4.15;2.17;;;;;;;28.63;42.64;101224.56;1720915;83;21014;-87
2021/06/25 09:10:39;;;;;;;2.52;1.60;;;;;;;28.79;42.51;101227.47;1720489;83;21779;-83
2021/06/25 09:13:10;;;;;;;3.52;2.25;;;;;;;28.93;42.36;101223.70;1682747;83;21608;-83
2021/06/25 09:15:37;;;;;;;4.72;2.50;;;;;;;29.18;41.92;101228.05;1678682;83;21109;-82
2021/06/25 09:18:11;;;;;;;5.28;2.22;;;;;;;29.19;41.32;101225.75;1666127;83;21382;-93
2021/06/25 09:20:44;;;;;;;4.75;2.45;;;;;;;29.21;41.41;101236.05;1672223;83;21109;-92
2021/06/25 09:23:14;;;;;;;3.52;2.15;;;;;;;29.32;41.10;101231.47;1711665;82;21767;-94
2021/06/25 09:26:09;;;;;;;2.80;2.10;;;;;;;29.27;41.19;101240.70;1708937;83;21129;-93
2021/06/25 09:28:39;;;;;;;3.92;2.87;;;;;;;29.21;41.05;101239.64;1710586;82;22320;-90
2021/06/25 09:31:28;;;;;;;3.42;1.82;;;;;;;29.06;40.80;101238.45;1665822;84;21108;-82
2021/06/25 09:33:58;;;;;;;2.55;1.72;;;;;;;28.95;41.05;101238.05;1708078;82;21042;-91
2021/06/25 09:36:28;;;;;;;3.50;1.90;;;;;;;28.86;40.93;101234.39;1701045;83;21759;-90
2021/06/25 09:39:16;;;;;;;2.92;1.90;;;;;;;28.72;40.64;101239.52;1716285;83;21166;-90
2021/06/25 09:41:45;;;;;;;3.62;2.00;;;;;;;28.73;40.76;101239.94;1681045;84;21062;-93
2021/06/25 09:44:24;;;;;;;5.97;3.60;;;;;;;28.73;40.78;101241.30;1716223;83;22776;-92
2021/06/25 09:46:59;;;;;;;5.90;2.60;;;;;;;28.78;40.65;101252.82;1717768;82;21104;-91
2021/06/25 09:49:34;;;;;;;6.58;2.70;;;;;;;28.53;40.41;101244.39;1698366;83;21787;-90
2021/06/25 09:52:04;;;;;;;4.90;3.67;;;;;;;28.37;40.36;101250.87;1712252;83;21669;-90
2021/06/25 09:54:31;;;;;;;3.85;2.25;;;;;;;28.22;40.34;101251.52;1676041;84;21085;-90
2021/06/25 09:57:10;;;;;;;4.22;1.92;;;;;;;28.10;40.26;101249.72;1702131;83;21652;-90
2021/06/25 10:02:25;;;;;;;2.83;1.90;;;;;;;28.25;40.69;101243.28;1688167;85;21883;-92
2021/06/25 10:05:05;;;;;;;6.65;2.20;;;;;;;28.33;40.56;101242.95;1687587;84;22199;-92
2021/06/25 10:07:31;;;;;;;9.35;2.50;;;;;;;28.34;40.67;101250.98;1681976;84;21063;-93
2021/06/25 10:10:07;;;;;;;2.70;1.75;;;;;;;28.32;40.74;101251.53;1716417;83;21028;-92
2021/06/25 10:12:37;;;;;;;2.77;2.10;;;;;;;28.44;41.05;101248.81;1689861;83;21077;-90
2021/06/25 10:15:05;;;;;;;4.58;1.72;;;;;;;28.57;40.95;101248.73;1678517;85;21791;-90
2021/06/25 10:17:35;;;;;;;4.10;2.45;;;;;;;28.60;40.75;101247.70;1713544;83;21636;-89
2021/06/25 10:20:12;;;;;;;3.67;1.95;;;;;;;28.54;40.35;101242.08;1715367;83;21060;-89
2021/06/25 10:22:42;;;;;;;6.10;2.20;;;;;;;28.58;40.56;101246.89;1681124;83;21596;-90
2021/06/25 10:25:10;;;;;;;8.63;2.08;;;;;;;28.46;39.82;101259.09;1697863;83;21575;-89
2021/06/25 10:27:38;;;;;;;8.23;2.37;;;;;;;28.24;40.20;101257.27;1709439;84;21768;-93
2021/06/25 10:30:06;;;;;;;4.30;2.55;;;;;;;28.25;40.25;101266.29;1690484;83;21007;-92
2021/06/25 10:32:32;;;;;;;4.42;2.27;;;;;;;28.14;40.24;101258.59;1704437;84;21106;-90
2021/06/25 10:35:02;;;;;;;5.08;2.35;;;;;;;27.94;40.53;101262.09;1668152;84;21599;-91
2021/06/25 10:37:31;;;;;;;7.87;2.85;;;;;;;27.85;40.72;101261.06;1694089;84;21153;-91
2021/06/25 10:39:58;;;;;;;4.08;2.62;;;;;;;27.73;41.14;101260.59;1693966;84;22718;-91
2021/06/25 10:42:41;;;;;;;3.77;2.45;;;;;;;27.71;41.39;101265.19;1715403;83;21016;-92
2021/06/25 10:45:08;;;;;;;5.75;3.00;;;;;;;27.80;41.27;101269.37;1716473;83;21033;-94
2021/06/25 10:47:55;;;;;;;4.40;2.42;;;;;;;27.88;41.19;101269.06;1716028;83;21537;-90
2021/06/25 10:50:23;;;;;;;4.87;2.45;;;;;;;28.10;41.29;101267.79;1716400;83;22610;-93
2021/06/25 10:53:14;;;;;;;7.83;2.87;;;;;;;28.26;40.74;101263.48;1715955;83;21833;-93
2021/06/25 10:55:45;;;;;;;4.80;1.90;;;;;;;28.34;40.75;101266.36;1715932;83;21060;-92
2021/06/25 10:58:22;;;;;;;3.80;2.30;;;;;;;28.47;40.69;101275.29;1715859;83;21486;-92
2021/06/25 11:00:57;;;;;;;3.65;2.12;;;;;;;28.65;40.35;101265.53;1716109;83;21024;-92
2021/06/25 11:03:36;;;;;;;5.58;2.12;;;;;;;28.85;40.30;101270.09;1716148;83;21534;-92
2021/06/25 11:06:05;;;;;;;6.75;2.25;;;;;;;29.21;40.23;101273.52;1716209;83;21528;-88
2021/06/25 11:08:33;;;;;;;4.17;2.20;;;;;;;29.56;40.07;101260.20;1716146;83;21105;-92
2021/06/25 11:11:00;;;;;;;4.50;2.37;;;;;;;29.78;39.64;101264.63;1716025;83;21655;-92
2021/06/25 11:13:34;;;;;;;7.67;2.22;;;;;;;29.71;39.19;101260.41;1715914;83;21252;-92
2021/06/25 11:15:59;;;;;;;5.42;1.90;;;;;;;29.60;39.24;101260.45;1717277;83;21133;-92
2021/06/25 11:18:34;;;;;;;4.08;2.35;;;;;;;29.63;39.47;101256.70;1718272;83;21798;-92
2021/06/25 11:21:04;;;;;;;3.87;2.10;;;;;;;29.80;39.52;101263.59;1718766;83;21058;-92
2021/06/25 11:23:42;;;;;;;4.00;1.75;;;;;;;29.88;39.15;101260.52;1720987;83;21036;-86
2021/06/25 11:26:23;;;;;;;5.08;3.92;;;;;;;29.81;39.07;101263.14;1720342;83;21248;-92
2021/06/25 11:28:55;;;;;;;3.75;2.02;;;;;;;29.66;38.71;101266.94;1666872;83;21157;-92
2021/06/25 11:31:28;;;;;;;3.62;2.85;;;;;;;29.06;38.21;101271.47;1695558;83;21839;-83
2021/06/25 11:34:04;;;;;;;6.42;3.42;;;;;;;28.62;38.71;101273.77;1697537;82;21138;-83
2021/06/25 11:36:51;;;;;;;5.05;2.40;;;;;;;28.56;39.17;101275.88;1693578;84;21069;-83
2021/06/25 11:39:29;;;;;;;2.62;2.08;;;;;;;28.60;39.20;101269.38;1693463;84;21150;-83
2021/06/25 11:42:10;;;;;;;3.58;2.15;;;;;;;28.53;39.38;101278.70;1671908;83;21603;-82
2021/06/25 11:44:41;;;;;;;6.10;2.80;;;;;;;28.34;39.41;101266.36;1692876;83;21849;-83
2021/06/25 11:47:15;;;;;;;5.12;3.50;;;;;;;28.13;39.81;101269.48;1661630;84;21101;-84
2021/06/25 11:52:25;;;;;;;5.08;2.95;;;;;;;27.84;40.06;101262.89;1675598;85;21080;-83
2021/06/25 11:55:10;;;;;;;5.83;2.45;;;;;;;27.82;39.91;101258.02;1680365;83;21094;-83